sensor_id;sensor_type;location;lat;lon;timestamp;temperature;humidity
25554;DHT22;13446;50.926;5.332;2024-03-17T00:01:50;9.10;99.90
25554;DHT22;13446;50.926;5.332;2024-03-17T00:04:16;9.00;99.90
25554;DHT22;13446;50.926;5.332;2024-03-17T00:06:41;9.00;99.90
25554;DHT22;13446;50.926;5.332;2024-03-17T00:09:08;9.00;99.90
25554;DHT22;13446;50.926;5.332;2024-03-17T00:11:35;9.00;99.90
25554;DHT22;13446;50.926;5.332;2024-03-17T00:14:03;8.90;99.90
25554;DHT22;13446;50.926;5.332;2024-03-17T00:16:30;8.80;99.90
25554;DHT22;13446;50.926;5.332;2024-03-17T00:18:56;8.90;99.90
25554;DHT22;13446;50.926;5.332;2024-03-17T00:21:22;9.00;99.90
25554;DHT22;13446;50.926;5.332;2024-03-17T00:23:48;9.10;99.90
25554;DHT22;13446;50.926;5.332;2024-03-17T00:26:17;9.10;99.90
25554;DHT22;13446;50.926;5.332;2024-03-17T00:28:44;9.00;99.90
25554;DHT22;13446;50.926;5.332;2024-03-17T00:31:13;9.30;99.90
25554;DHT22;13446;50.926;5.332;2024-03-17T00:33:40;9.20;99.90
25554;DHT22;13446;50.926;5.332;2024-03-17T00:36:06;9.20;99.90
25554;DHT22;13446;50.926;5.332;2024-03-17T00:38:32;9.30;99.90
25554;DHT22;13446;50.926;5.332;2024-03-17T00:40:58;9.40;99.90
25554;DHT22;13446;50.926;5.332;2024-03-17T00:43:25;9.30;99.90
25554;DHT22;13446;50.926;5.332;2024-03-17T00:45:54;9.10;99.90
25554;DHT22;13446;50.926;5.332;2024-03-17T00:48:19;9.00;99.90
25554;DHT22;13446;50.926;5.332;2024-03-17T00:50:46;8.80;99.90
25554;DHT22;13446;50.926;5.332;2024-03-17T00:53:12;8.90;99.90
25554;DHT22;13446;50.926;5.332;2024-03-17T00:55:38;9.10;99.90
25554;DHT22;13446;50.926;5.332;2024-03-17T00:58:04;8.90;99.90
25554;DHT22;13446;50.926;5.332;2024-03-17T01:00:30;8.80;99.90
25554;DHT22;13446;50.926;5.332;2024-03-17T01:02:58;8.80;99.90
25554;DHT22;13446;50.926;5.332;2024-03-17T01:05:25;8.70;99.90
25554;DHT22;13446;50.926;5.332;2024-03-17T01:07:52;8.70;99.90
25554;DHT22;13446;50.926;5.332;2024-03-17T01:10:18;8.80;99.90
25554;DHT22;13446;50.926;5.332;2024-03-17T01:12:44;8.70;99.90
25554;DHT22;13446;50.926;5.332;2024-03-17T01:15:11;8.40;99.90
25554;DHT22;13446;50.926;5.332;2024-03-17T01:17:38;8.40;99.90
25554;DHT22;13446;50.926;5.332;2024-03-17T01:20:04;8.60;99.90
25554;DHT22;13446;50.926;5.332;2024-03-17T01:22:30;8.70;99.90
25554;DHT22;13446;50.926;5.332;2024-03-17T01:24:55;8.60;99.90
25554;DHT22;13446;50.926;5.332;2024-03-17T01:27:21;8.50;99.90
25554;DHT22;13446;50.926;5.332;2024-03-17T01:29:47;8.40;99.90
25554;DHT22;13446;50.926;5.332;2024-03-17T01:32:12;8.50;99.90
25554;DHT22;13446;50.926;5.332;2024-03-17T01:34:38;8.60;99.90
25554;DHT22;13446;50.926;5.332;2024-03-17T01:37:04;8.70;99.90
25554;DHT22;13446;50.926;5.332;2024-03-17T01:39:30;8.90;99.90
25554;DHT22;13446;50.926;5.332;2024-03-17T01:41:58;8.70;99.90
25554;DHT22;13446;50.926;5.332;2024-03-17T01:44:29;8.70;99.90
25554;DHT22;13446;50.926;5.332;2024-03-17T01:46:56;9.00;99.90
25554;DHT22;13446;50.926;5.332;2024-03-17T01:49:23;9.20;99.90
25554;DHT22;13446;50.926;5.332;2024-03-17T01:51:50;9.30;99.90
25554;DHT22;13446;50.926;5.332;2024-03-17T01:54:17;9.10;99.90
25554;DHT22;13446;50.926;5.332;2024-03-17T01:56:45;9.10;99.90
25554;DHT22;13446;50.926;5.332;2024-03-17T01:59:11;9.40;99.90
25554;DHT22;13446;50.926;5.332;2024-03-17T02:01:37;9.20;99.90
25554;DHT22;13446;50.926;5.332;2024-03-17T02:04:04;9.20;99.90
25554;DHT22;13446;50.926;5.332;2024-03-17T02:06:30;9.20;99.90
25554;DHT22;13446;50.926;5.332;2024-03-17T02:08:56;9.40;99.90
25554;DHT22;13446;50.926;5.332;2024-03-17T02:11:29;9.50;99.90
25554;DHT22;13446;50.926;5.332;2024-03-17T02:13:55;9.50;99.90
25554;DHT22;13446;50.926;5.332;2024-03-17T02:16:22;9.20;99.90
25554;DHT22;13446;50.926;5.332;2024-03-17T02:18:49;9.30;99.90
25554;DHT22;13446;50.926;5.332;2024-03-17T02:21:15;9.40;99.90
25554;DHT22;13446;50.926;5.332;2024-03-17T02:23:44;9.40;99.90
25554;DHT22;13446;50.926;5.332;2024-03-17T02:26:11;9.40;99.90
25554;DHT22;13446;50.926;5.332;2024-03-17T02:28:41;9.40;99.90
25554;DHT22;13446;50.926;5.332;2024-03-17T02:31:08;9.40;99.90
25554;DHT22;13446;50.926;5.332;2024-03-17T02:33:34;9.60;99.90
25554;DHT22;13446;50.926;5.332;2024-03-17T02:36:00;9.40;99.90
25554;DHT22;13446;50.926;5.332;2024-03-17T02:38:26;9.20;99.90
25554;DHT22;13446;50.926;5.332;2024-03-17T02:41:11;9.10;99.90
25554;DHT22;13446;50.926;5.332;2024-03-17T02:43:36;9.10;99.90
25554;DHT22;13446;50.926;5.332;2024-03-17T02:46:03;8.90;99.90
25554;DHT22;13446;50.926;5.332;2024-03-17T02:48:34;9.10;99.90
25554;DHT22;13446;50.926;5.332;2024-03-17T02:51:02;9.20;99.90
25554;DHT22;13446;50.926;5.332;2024-03-17T02:53:27;9.30;99.90
25554;DHT22;13446;50.926;5.332;2024-03-17T02:55:53;9.20;99.90
25554;DHT22;13446;50.926;5.332;2024-03-17T02:58:18;9.30;99.90
25554;DHT22;13446;50.926;5.332;2024-03-17T03:00:45;9.20;99.90
25554;DHT22;13446;50.926;5.332;2024-03-17T03:03:11;9.00;99.90
25554;DHT22;13446;50.926;5.332;2024-03-17T03:05:37;9.00;99.90
25554;DHT22;13446;50.926;5.332;2024-03-17T03:08:03;9.00;99.90
25554;DHT22;13446;50.926;5.332;2024-03-17T03:10:30;9.10;99.90
25554;DHT22;13446;50.926;5.332;2024-03-17T03:12:56;9.20;99.90
25554;DHT22;13446;50.926;5.332;2024-03-17T03:15:21;9.30;99.90
25554;DHT22;13446;50.926;5.332;2024-03-17T03:17:47;9.20;99.90
25554;DHT22;13446;50.926;5.332;2024-03-17T03:20:14;9.20;99.90
25554;DHT22;13446;50.926;5.332;2024-03-17T03:22:40;9.20;99.90
25554;DHT22;13446;50.926;5.332;2024-03-17T03:25:06;9.00;99.90
25554;DHT22;13446;50.926;5.332;2024-03-17T03:27:33;9.00;99.90
25554;DHT22;13446;50.926;5.332;2024-03-17T03:29:59;8.90;99.90
25554;DHT22;13446;50.926;5.332;2024-03-17T03:32:25;9.00;99.90
25554;DHT22;13446;50.926;5.332;2024-03-17T03:34:51;8.80;99.90
25554;DHT22;13446;50.926;5.332;2024-03-17T03:37:16;8.70;99.90
25554;DHT22;13446;50.926;5.332;2024-03-17T03:39:42;8.80;99.90
25554;DHT22;13446;50.926;5.332;2024-03-17T03:42:08;8.90;99.90
25554;DHT22;13446;50.926;5.332;2024-03-17T03:44:33;8.90;99.90
25554;DHT22;13446;50.926;5.332;2024-03-17T03:46:59;8.80;99.90
25554;DHT22;13446;50.926;5.332;2024-03-17T03:49:26;8.90;99.90
25554;DHT22;13446;50.926;5.332;2024-03-17T03:51:52;8.90;99.90
25554;DHT22;13446;50.926;5.332;2024-03-17T03:54:17;8.90;99.90
25554;DHT22;13446;50.926;5.332;2024-03-17T03:56:43;8.80;99.90
25554;DHT22;13446;50.926;5.332;2024-03-17T03:59:09;8.70;99.90
25554;DHT22;13446;50.926;5.332;2024-03-17T04:01:35;8.80;99.90
25554;DHT22;13446;50.926;5.332;2024-03-17T04:04:01;8.80;99.90
25554;DHT22;13446;50.926;5.332;2024-03-17T04:06:28;8.60;99.90
25554;DHT22;13446;50.926;5.332;2024-03-17T04:08:54;8.60;99.90
25554;DHT22;13446;50.926;5.332;2024-03-17T04:11:20;8.70;99.90
25554;DHT22;13446;50.926;5.332;2024-03-17T04:13:45;9.00;99.90
25554;DHT22;13446;50.926;5.332;2024-03-17T04:16:12;8.90;99.90
25554;DHT22;13446;50.926;5.332;2024-03-17T04:18:40;8.90;99.90
25554;DHT22;13446;50.926;5.332;2024-03-17T04:21:07;8.80;99.90
25554;DHT22;13446;50.926;5.332;2024-03-17T04:23:33;8.90;99.90
25554;DHT22;13446;50.926;5.332;2024-03-17T04:26:00;8.90;99.90
25554;DHT22;13446;50.926;5.332;2024-03-17T04:28:26;8.70;99.90
25554;DHT22;13446;50.926;5.332;2024-03-17T04:30:52;8.80;99.90
25554;DHT22;13446;50.926;5.332;2024-03-17T04:33:18;8.90;99.90
25554;DHT22;13446;50.926;5.332;2024-03-17T04:35:43;8.90;99.90
25554;DHT22;13446;50.926;5.332;2024-03-17T04:38:09;8.90;99.90
25554;DHT22;13446;50.926;5.332;2024-03-17T04:40:40;9.00;99.90
25554;DHT22;13446;50.926;5.332;2024-03-17T04:43:08;9.10;99.90
25554;DHT22;13446;50.926;5.332;2024-03-17T04:45:34;9.00;99.90
25554;DHT22;13446;50.926;5.332;2024-03-17T04:47:59;9.00;99.90
25554;DHT22;13446;50.926;5.332;2024-03-17T04:50:25;8.80;99.90
25554;DHT22;13446;50.926;5.332;2024-03-17T04:52:52;8.80;99.90
25554;DHT22;13446;50.926;5.332;2024-03-17T04:55:17;8.90;99.90
25554;DHT22;13446;50.926;5.332;2024-03-17T04:57:45;8.90;99.90
25554;DHT22;13446;50.926;5.332;2024-03-17T05:00:11;9.00;99.90
25554;DHT22;13446;50.926;5.332;2024-03-17T05:02:38;9.10;99.90
25554;DHT22;13446;50.926;5.332;2024-03-17T05:05:04;9.10;99.90
25554;DHT22;13446;50.926;5.332;2024-03-17T05:07:31;9.10;99.90
25554;DHT22;13446;50.926;5.332;2024-03-17T05:09:56;8.90;99.90
25554;DHT22;13446;50.926;5.332;2024-03-17T05:12:23;8.90;99.90
25554;DHT22;13446;50.926;5.332;2024-03-17T05:14:48;8.90;99.90
25554;DHT22;13446;50.926;5.332;2024-03-17T05:17:14;8.90;99.90
25554;DHT22;13446;50.926;5.332;2024-03-17T05:19:40;8.90;99.90
25554;DHT22;13446;50.926;5.332;2024-03-17T05:22:06;8.80;99.90
25554;DHT22;13446;50.926;5.332;2024-03-17T05:24:31;8.70;99.90
25554;DHT22;13446;50.926;5.332;2024-03-17T05:26:57;8.70;99.90
25554;DHT22;13446;50.926;5.332;2024-03-17T05:29:23;8.60;99.90
25554;DHT22;13446;50.926;5.332;2024-03-17T05:31:50;8.60;99.90
25554;DHT22;13446;50.926;5.332;2024-03-17T05:34:16;8.70;99.90
25554;DHT22;13446;50.926;5.332;2024-03-17T05:36:42;8.60;99.90
25554;DHT22;13446;50.926;5.332;2024-03-17T05:39:08;8.60;99.90
25554;DHT22;13446;50.926;5.332;2024-03-17T05:41:33;8.60;99.90
25554;DHT22;13446;50.926;5.332;2024-03-17T05:44:00;8.50;99.90
25554;DHT22;13446;50.926;5.332;2024-03-17T05:46:28;8.40;99.90
25554;DHT22;13446;50.926;5.332;2024-03-17T05:48:54;8.50;99.90
25554;DHT22;13446;50.926;5.332;2024-03-17T05:51:20;8.60;99.90
25554;DHT22;13446;50.926;5.332;2024-03-17T05:53:46;8.70;99.90
25554;DHT22;13446;50.926;5.332;2024-03-17T05:56:12;8.60;99.90
25554;DHT22;13446;50.926;5.332;2024-03-17T05:58:38;8.60;99.90
25554;DHT22;13446;50.926;5.332;2024-03-17T06:01:06;8.60;99.90
25554;DHT22;13446;50.926;5.332;2024-03-17T06:03:37;8.80;99.90
25554;DHT22;13446;50.926;5.332;2024-03-17T06:06:04;8.80;99.90
25554;DHT22;13446;50.926;5.332;2024-03-17T06:08:30;8.60;99.90
25554;DHT22;13446;50.926;5.332;2024-03-17T06:10:56;8.40;99.90
25554;DHT22;13446;50.926;5.332;2024-03-17T06:13:26;8.40;99.90
25554;DHT22;13446;50.926;5.332;2024-03-17T06:15:52;8.40;99.90
25554;DHT22;13446;50.926;5.332;2024-03-17T06:18:17;8.70;99.90
25554;DHT22;13446;50.926;5.332;2024-03-17T06:20:44;8.90;99.90
25554;DHT22;13446;50.926;5.332;2024-03-17T06:23:11;8.90;99.90
25554;DHT22;13446;50.926;5.332;2024-03-17T06:25:45;9.20;99.90
25554;DHT22;13446;50.926;5.332;2024-03-17T06:28:12;9.30;99.90
25554;DHT22;13446;50.926;5.332;2024-03-17T06:30:46;9.40;99.90
25554;DHT22;13446;50.926;5.332;2024-03-17T06:33:19;9.50;99.90
25554;DHT22;13446;50.926;5.332;2024-03-17T06:35:45;9.60;99.90
25554;DHT22;13446;50.926;5.332;2024-03-17T06:38:12;9.60;99.90
25554;DHT22;13446;50.926;5.332;2024-03-17T06:40:38;9.70;99.90
25554;DHT22;13446;50.926;5.332;2024-03-17T06:43:05;9.70;99.90
25554;DHT22;13446;50.926;5.332;2024-03-17T06:45:32;9.80;99.90
25554;DHT22;13446;50.926;5.332;2024-03-17T06:47:58;9.80;99.90
25554;DHT22;13446;50.926;5.332;2024-03-17T06:50:23;9.80;99.90
25554;DHT22;13446;50.926;5.332;2024-03-17T06:52:49;9.80;99.90
25554;DHT22;13446;50.926;5.332;2024-03-17T06:55:17;9.80;99.90
25554;DHT22;13446;50.926;5.332;2024-03-17T06:57:43;9.80;99.90
25554;DHT22;13446;50.926;5.332;2024-03-17T07:00:12;9.80;99.90
25554;DHT22;13446;50.926;5.332;2024-03-17T07:02:44;9.70;99.90
25554;DHT22;13446;50.926;5.332;2024-03-17T07:05:13;9.80;99.90
25554;DHT22;13446;50.926;5.332;2024-03-17T07:07:43;9.80;99.90
25554;DHT22;13446;50.926;5.332;2024-03-17T07:10:10;9.80;99.90
25554;DHT22;13446;50.926;5.332;2024-03-17T07:12:39;10.10;99.90
25554;DHT22;13446;50.926;5.332;2024-03-17T07:15:05;10.40;99.90
25554;DHT22;13446;50.926;5.332;2024-03-17T07:17:32;10.70;99.90
25554;DHT22;13446;50.926;5.332;2024-03-17T07:19:58;11.00;99.90
25554;DHT22;13446;50.926;5.332;2024-03-17T07:22:24;11.70;99.90
25554;DHT22;13446;50.926;5.332;2024-03-17T07:24:52;12.50;99.90
25554;DHT22;13446;50.926;5.332;2024-03-17T07:27:21;13.30;99.90
25554;DHT22;13446;50.926;5.332;2024-03-17T07:29:47;13.90;99.90
25554;DHT22;13446;50.926;5.332;2024-03-17T07:32:12;13.70;99.90
25554;DHT22;13446;50.926;5.332;2024-03-17T07:34:38;13.90;99.90
25554;DHT22;13446;50.926;5.332;2024-03-17T07:37:03;13.90;99.90
25554;DHT22;13446;50.926;5.332;2024-03-17T07:39:32;13.80;99.90
25554;DHT22;13446;50.926;5.332;2024-03-17T07:42:01;14.00;99.90
25554;DHT22;13446;50.926;5.332;2024-03-17T07:44:28;14.50;99.90
25554;DHT22;13446;50.926;5.332;2024-03-17T07:46:58;15.10;99.90
25554;DHT22;13446;50.926;5.332;2024-03-17T07:49:25;15.10;99.90
25554;DHT22;13446;50.926;5.332;2024-03-17T07:51:51;14.90;99.90
25554;DHT22;13446;50.926;5.332;2024-03-17T07:54:16;14.80;99.90
25554;DHT22;13446;50.926;5.332;2024-03-17T07:56:44;14.80;99.90
25554;DHT22;13446;50.926;5.332;2024-03-17T07:59:12;15.10;99.90
25554;DHT22;13446;50.926;5.332;2024-03-17T08:01:39;15.30;99.90
25554;DHT22;13446;50.926;5.332;2024-03-17T08:04:05;15.50;99.90
25554;DHT22;13446;50.926;5.332;2024-03-17T08:06:30;15.50;99.90
25554;DHT22;13446;50.926;5.332;2024-03-17T08:08:56;15.50;99.90
25554;DHT22;13446;50.926;5.332;2024-03-17T08:11:22;15.40;99.90
25554;DHT22;13446;50.926;5.332;2024-03-17T08:13:50;15.50;99.90
25554;DHT22;13446;50.926;5.332;2024-03-17T08:16:16;15.50;99.90
25554;DHT22;13446;50.926;5.332;2024-03-17T08:18:42;15.60;99.90
25554;DHT22;13446;50.926;5.332;2024-03-17T08:21:08;15.70;99.90
25554;DHT22;13446;50.926;5.332;2024-03-17T08:23:35;15.70;99.90
25554;DHT22;13446;50.926;5.332;2024-03-17T08:26:07;15.60;99.90
25554;DHT22;13446;50.926;5.332;2024-03-17T08:28:33;15.30;99.90
25554;DHT22;13446;50.926;5.332;2024-03-17T08:31:00;14.90;99.90
25554;DHT22;13446;50.926;5.332;2024-03-17T08:33:27;14.90;99.90
25554;DHT22;13446;50.926;5.332;2024-03-17T08:35:57;14.90;99.90
25554;DHT22;13446;50.926;5.332;2024-03-17T08:38:23;14.90;99.90
25554;DHT22;13446;50.926;5.332;2024-03-17T08:40:51;14.60;99.90
25554;DHT22;13446;50.926;5.332;2024-03-17T08:43:17;14.60;99.90
25554;DHT22;13446;50.926;5.332;2024-03-17T08:45:43;14.70;99.90
25554;DHT22;13446;50.926;5.332;2024-03-17T08:48:09;15.10;99.90
25554;DHT22;13446;50.926;5.332;2024-03-17T08:50:38;15.40;99.90
25554;DHT22;13446;50.926;5.332;2024-03-17T08:53:04;15.90;99.90
25554;DHT22;13446;50.926;5.332;2024-03-17T08:55:30;16.80;99.90
25554;DHT22;13446;50.926;5.332;2024-03-17T08:57:55;17.40;99.90
25554;DHT22;13446;50.926;5.332;2024-03-17T09:00:21;18.40;99.90
25554;DHT22;13446;50.926;5.332;2024-03-17T09:02:47;18.70;99.90
25554;DHT22;13446;50.926;5.332;2024-03-17T09:05:13;19.10;99.10
25554;DHT22;13446;50.926;5.332;2024-03-17T09:07:39;20.10;98.10
25554;DHT22;13446;50.926;5.332;2024-03-17T09:10:06;21.30;95.30
25554;DHT22;13446;50.926;5.332;2024-03-17T09:12:34;22.80;89.50
25554;DHT22;13446;50.926;5.332;2024-03-17T09:14:59;23.50;82.00
25554;DHT22;13446;50.926;5.332;2024-03-17T09:17:25;23.90;75.20
25554;DHT22;13446;50.926;5.332;2024-03-17T09:19:51;24.00;70.70
25554;DHT22;13446;50.926;5.332;2024-03-17T09:22:17;23.00;72.10
25554;DHT22;13446;50.926;5.332;2024-03-17T09:24:43;22.50;73.80
25554;DHT22;13446;50.926;5.332;2024-03-17T09:27:09;22.40;76.00
25554;DHT22;13446;50.926;5.332;2024-03-17T09:29:36;22.60;77.30
25554;DHT22;13446;50.926;5.332;2024-03-17T09:32:01;22.60;73.70
25554;DHT22;13446;50.926;5.332;2024-03-17T09:34:27;21.90;76.60
25554;DHT22;13446;50.926;5.332;2024-03-17T09:36:54;21.90;77.40
25554;DHT22;13446;50.926;5.332;2024-03-17T09:39:19;22.10;79.30
25554;DHT22;13446;50.926;5.332;2024-03-17T09:41:47;23.10;76.10
25554;DHT22;13446;50.926;5.332;2024-03-17T09:44:12;24.00;70.60
25554;DHT22;13446;50.926;5.332;2024-03-17T09:46:41;23.80;69.10
25554;DHT22;13446;50.926;5.332;2024-03-17T09:49:15;23.50;71.50
25554;DHT22;13446;50.926;5.332;2024-03-17T09:51:42;24.50;71.20
25554;DHT22;13446;50.926;5.332;2024-03-17T09:54:18;25.20;65.60
25554;DHT22;13446;50.926;5.332;2024-03-17T09:56:45;25.90;66.10
25554;DHT22;13446;50.926;5.332;2024-03-17T09:59:11;25.50;62.00
25554;DHT22;13446;50.926;5.332;2024-03-17T10:01:37;25.10;63.40
25554;DHT22;13446;50.926;5.332;2024-03-17T10:04:03;24.80;65.80
25554;DHT22;13446;50.926;5.332;2024-03-17T10:06:45;24.60;66.00
25554;DHT22;13446;50.926;5.332;2024-03-17T10:09:16;23.80;66.50
25554;DHT22;13446;50.926;5.332;2024-03-17T10:11:46;23.40;68.40
25554;DHT22;13446;50.926;5.332;2024-03-17T10:14:17;23.30;70.40
25554;DHT22;13446;50.926;5.332;2024-03-17T10:16:45;22.90;68.90
25554;DHT22;13446;50.926;5.332;2024-03-17T10:19:24;22.00;71.00
25554;DHT22;13446;50.926;5.332;2024-03-17T10:21:58;21.40;76.90
25554;DHT22;13446;50.926;5.332;2024-03-17T10:24:26;21.30;77.10
25554;DHT22;13446;50.926;5.332;2024-03-17T10:26:55;21.20;79.00
25554;DHT22;13446;50.926;5.332;2024-03-17T10:29:34;20.60;80.20
25554;DHT22;13446;50.926;5.332;2024-03-17T10:32:21;20.40;83.60
25554;DHT22;13446;50.926;5.332;2024-03-17T10:34:50;20.00;85.70
25554;DHT22;13446;50.926;5.332;2024-03-17T10:37:17;19.70;88.30
25554;DHT22;13446;50.926;5.332;2024-03-17T10:39:46;19.50;90.20
25554;DHT22;13446;50.926;5.332;2024-03-17T10:42:24;19.20;91.80
25554;DHT22;13446;50.926;5.332;2024-03-17T10:44:50;18.60;93.40
25554;DHT22;13446;50.926;5.332;2024-03-17T10:47:26;18.20;95.00
25554;DHT22;13446;50.926;5.332;2024-03-17T10:49:53;17.90;97.00
25554;DHT22;13446;50.926;5.332;2024-03-17T10:52:21;17.90;98.30
25554;DHT22;13446;50.926;5.332;2024-03-17T10:54:52;17.80;98.90
25554;DHT22;13446;50.926;5.332;2024-03-17T11:00:01;17.40;99.90
25554;DHT22;13446;50.926;5.332;2024-03-17T11:02:30;17.10;99.90
25554;DHT22;13446;50.926;5.332;2024-03-17T11:05:25;17.00;99.90
25554;DHT22;13446;50.926;5.332;2024-03-17T11:07:52;17.10;99.90
25554;DHT22;13446;50.926;5.332;2024-03-17T11:10:22;16.80;99.90
25554;DHT22;13446;50.926;5.332;2024-03-17T11:12:53;16.60;99.90
25554;DHT22;13446;50.926;5.332;2024-03-17T11:20:38;16.80;99.90
25554;DHT22;13446;50.926;5.332;2024-03-17T11:23:05;16.80;99.90
25554;DHT22;13446;50.926;5.332;2024-03-17T11:28:03;16.80;99.90
25554;DHT22;13446;50.926;5.332;2024-03-17T11:38:56;16.90;99.90
25554;DHT22;13446;50.926;5.332;2024-03-17T11:41:39;17.10;99.90
25554;DHT22;13446;50.926;5.332;2024-03-17T11:46:59;17.10;99.90
25554;DHT22;13446;50.926;5.332;2024-03-17T11:49:34;17.00;99.90
25554;DHT22;13446;50.926;5.332;2024-03-17T11:52:01;16.70;99.90
25554;DHT22;13446;50.926;5.332;2024-03-17T11:54:33;16.60;99.90
25554;DHT22;13446;50.926;5.332;2024-03-17T11:57:04;16.80;99.90
25554;DHT22;13446;50.926;5.332;2024-03-17T11:59:32;17.00;99.90
25554;DHT22;13446;50.926;5.332;2024-03-17T12:01:58;17.00;99.90
25554;DHT22;13446;50.926;5.332;2024-03-17T12:04:39;17.20;99.90
25554;DHT22;13446;50.926;5.332;2024-03-17T12:07:15;17.40;99.90
25554;DHT22;13446;50.926;5.332;2024-03-17T12:09:43;17.40;99.90
25554;DHT22;13446;50.926;5.332;2024-03-17T12:12:21;17.60;99.90
25554;DHT22;13446;50.926;5.332;2024-03-17T12:14:49;17.70;99.90
25554;DHT22;13446;50.926;5.332;2024-03-17T12:17:21;17.80;99.90
25554;DHT22;13446;50.926;5.332;2024-03-17T12:19:47;17.90;99.90
25554;DHT22;13446;50.926;5.332;2024-03-17T12:22:18;18.00;99.90
25554;DHT22;13446;50.926;5.332;2024-03-17T12:24:54;18.30;99.90
25554;DHT22;13446;50.926;5.332;2024-03-17T12:27:24;18.50;99.90
25554;DHT22;13446;50.926;5.332;2024-03-17T12:29:51;18.70;99.90
25554;DHT22;13446;50.926;5.332;2024-03-17T12:32:19;18.60;99.90
25554;DHT22;13446;50.926;5.332;2024-03-17T12:34:51;18.80;99.90
25554;DHT22;13446;50.926;5.332;2024-03-17T12:37:27;18.90;99.90
25554;DHT22;13446;50.926;5.332;2024-03-17T12:40:02;19.10;99.90
25554;DHT22;13446;50.926;5.332;2024-03-17T12:42:29;19.20;99.90
25554;DHT22;13446;50.926;5.332;2024-03-17T12:45:01;19.30;99.90
25554;DHT22;13446;50.926;5.332;2024-03-17T12:47:30;19.40;99.90
25554;DHT22;13446;50.926;5.332;2024-03-17T12:50:00;19.30;99.90
25554;DHT22;13446;50.926;5.332;2024-03-17T12:52:30;19.10;99.90
25554;DHT22;13446;50.926;5.332;2024-03-17T12:54:57;18.90;99.90
25554;DHT22;13446;50.926;5.332;2024-03-17T12:57:47;18.80;99.90
25554;DHT22;13446;50.926;5.332;2024-03-17T13:00:32;19.10;99.90
25554;DHT22;13446;50.926;5.332;2024-03-17T13:02:59;19.20;99.90
25554;DHT22;13446;50.926;5.332;2024-03-17T13:05:25;19.30;99.90
25554;DHT22;13446;50.926;5.332;2024-03-17T13:07:51;19.50;99.90
25554;DHT22;13446;50.926;5.332;2024-03-17T13:10:20;19.30;99.90
25554;DHT22;13446;50.926;5.332;2024-03-17T13:12:47;19.30;99.90
25554;DHT22;13446;50.926;5.332;2024-03-17T13:15:17;19.70;99.90
25554;DHT22;13446;50.926;5.332;2024-03-17T13:17:44;20.00;99.90
25554;DHT22;13446;50.926;5.332;2024-03-17T13:20:16;20.10;99.50
25554;DHT22;13446;50.926;5.332;2024-03-17T13:22:43;20.30;98.60
25554;DHT22;13446;50.926;5.332;2024-03-17T13:25:18;19.80;99.70
25554;DHT22;13446;50.926;5.332;2024-03-17T13:27:45;20.00;99.90
25554;DHT22;13446;50.926;5.332;2024-03-17T13:30:12;20.20;99.40
25554;DHT22;13446;50.926;5.332;2024-03-17T13:32:39;20.10;99.40
25554;DHT22;13446;50.926;5.332;2024-03-17T13:35:06;19.80;99.70
25554;DHT22;13446;50.926;5.332;2024-03-17T13:37:34;19.70;99.90
25554;DHT22;13446;50.926;5.332;2024-03-17T13:40:01;19.70;99.90
25554;DHT22;13446;50.926;5.332;2024-03-17T13:42:28;19.50;99.90
25554;DHT22;13446;50.926;5.332;2024-03-17T13:44:54;19.60;99.90
25554;DHT22;13446;50.926;5.332;2024-03-17T13:47:21;19.70;99.90
25554;DHT22;13446;50.926;5.332;2024-03-17T13:49:48;20.00;99.90
25554;DHT22;13446;50.926;5.332;2024-03-17T13:52:14;19.90;99.90
25554;DHT22;13446;50.926;5.332;2024-03-17T13:54:41;19.90;99.90
25554;DHT22;13446;50.926;5.332;2024-03-17T13:57:07;19.70;99.90
25554;DHT22;13446;50.926;5.332;2024-03-17T13:59:32;19.40;99.90
25554;DHT22;13446;50.926;5.332;2024-03-17T14:01:59;19.00;99.90
25554;DHT22;13446;50.926;5.332;2024-03-17T14:04:25;18.80;99.90
25554;DHT22;13446;50.926;5.332;2024-03-17T14:06:51;18.40;99.90
25554;DHT22;13446;50.926;5.332;2024-03-17T14:09:18;18.10;99.90
25554;DHT22;13446;50.926;5.332;2024-03-17T14:11:44;17.90;99.90
25554;DHT22;13446;50.926;5.332;2024-03-17T14:14:12;18.00;99.90
25554;DHT22;13446;50.926;5.332;2024-03-17T14:16:37;18.00;99.90
25554;DHT22;13446;50.926;5.332;2024-03-17T14:19:04;18.20;99.90
25554;DHT22;13446;50.926;5.332;2024-03-17T14:21:30;18.30;99.90
25554;DHT22;13446;50.926;5.332;2024-03-17T14:23:56;18.10;99.90
25554;DHT22;13446;50.926;5.332;2024-03-17T14:26:22;18.10;99.90
25554;DHT22;13446;50.926;5.332;2024-03-17T14:28:49;17.90;99.90
25554;DHT22;13446;50.926;5.332;2024-03-17T14:31:20;18.00;99.90
25554;DHT22;13446;50.926;5.332;2024-03-17T14:33:45;17.80;99.90
25554;DHT22;13446;50.926;5.332;2024-03-17T14:36:11;17.80;99.90
25554;DHT22;13446;50.926;5.332;2024-03-17T14:38:37;17.80;99.90
25554;DHT22;13446;50.926;5.332;2024-03-17T14:41:02;17.60;99.90
25554;DHT22;13446;50.926;5.332;2024-03-17T14:43:30;17.40;99.90
25554;DHT22;13446;50.926;5.332;2024-03-17T14:45:56;17.40;99.90
25554;DHT22;13446;50.926;5.332;2024-03-17T14:48:21;17.20;99.90
25554;DHT22;13446;50.926;5.332;2024-03-17T14:50:47;17.30;99.90
25554;DHT22;13446;50.926;5.332;2024-03-17T14:53:13;17.30;99.90
25554;DHT22;13446;50.926;5.332;2024-03-17T14:55:38;17.20;99.90
25554;DHT22;13446;50.926;5.332;2024-03-17T14:58:04;17.10;99.90
25554;DHT22;13446;50.926;5.332;2024-03-17T15:00:32;17.00;99.90
25554;DHT22;13446;50.926;5.332;2024-03-17T15:02:57;16.90;99.90
25554;DHT22;13446;50.926;5.332;2024-03-17T15:05:23;16.90;99.90
25554;DHT22;13446;50.926;5.332;2024-03-17T15:07:51;16.90;99.90
25554;DHT22;13446;50.926;5.332;2024-03-17T15:10:17;16.90;99.90
25554;DHT22;13446;50.926;5.332;2024-03-17T15:12:49;16.80;99.90
25554;DHT22;13446;50.926;5.332;2024-03-17T15:15:15;16.70;99.90
25554;DHT22;13446;50.926;5.332;2024-03-17T15:17:41;16.90;99.90
25554;DHT22;13446;50.926;5.332;2024-03-17T15:20:07;16.80;99.90
25554;DHT22;13446;50.926;5.332;2024-03-17T15:22:46;16.80;99.90
25554;DHT22;13446;50.926;5.332;2024-03-17T15:25:13;16.70;99.90
25554;DHT22;13446;50.926;5.332;2024-03-17T15:27:43;16.50;99.90
25554;DHT22;13446;50.926;5.332;2024-03-17T15:30:15;16.50;99.90
25554;DHT22;13446;50.926;5.332;2024-03-17T15:32:47;16.60;99.90
25554;DHT22;13446;50.926;5.332;2024-03-17T15:35:13;16.40;99.90
25554;DHT22;13446;50.926;5.332;2024-03-17T15:37:39;16.50;99.90
25554;DHT22;13446;50.926;5.332;2024-03-17T15:40:06;16.50;99.90
25554;DHT22;13446;50.926;5.332;2024-03-17T15:42:33;16.70;99.90
25554;DHT22;13446;50.926;5.332;2024-03-17T15:44:59;16.70;99.90
25554;DHT22;13446;50.926;5.332;2024-03-17T15:47:25;16.60;99.90
25554;DHT22;13446;50.926;5.332;2024-03-17T15:49:51;16.50;99.90
25554;DHT22;13446;50.926;5.332;2024-03-17T15:52:16;16.40;99.90
25554;DHT22;13446;50.926;5.332;2024-03-17T15:54:42;16.50;99.90
25554;DHT22;13446;50.926;5.332;2024-03-17T15:57:07;16.40;99.90
25554;DHT22;13446;50.926;5.332;2024-03-17T15:59:33;16.30;99.90
25554;DHT22;13446;50.926;5.332;2024-03-17T16:02:00;16.20;99.90